Time;durP1;ratioP1;P1;durP2;ratioP2;P2;SDS_P1;SDS_P2;PMS_P1;PMS_P2;Temp;Humidity;BMP_temperature;BMP_pressure;BME280_temperature;BME280_humidity;BME280_pressure;Samples;Min_cycle;Max_cycle;Signal;HPM_P1;HPM_P2
2021/06/08 00:01:41;;;;;;;2.10;1.45;;;;;;;;;;5068454;28;20113;-73
2021/06/08 00:04:07;;;;;;;1.60;1.38;;;;;;;;;;5068102;28;20055;-73
2021/06/08 00:06:33;;;;;;;1.30;1.20;;;;;;;;;;5068107;28;20053;-73
2021/06/08 00:08:59;;;;;;;1.35;1.25;;;;;;;;;;5067259;28;20607;-73
2021/06/08 00:11:25;;;;;;;1.77;1.67;;;;;;;;;;5068077;28;20540;-73
2021/06/08 00:13:52;;;;;;;1.65;1.55;;;;;;;;;;5067999;28;20094;-73
2021/06/08 00:16:18;;;;;;;1.83;1.63;;;;;;;;;;5068218;28;20080;-73
2021/06/08 00:18:44;;;;;;;2.63;2.42;;;;;;;;;;5068393;28;20044;-73
2021/06/08 00:21:10;;;;;;;2.40;1.88;;;;;;;;;;5067876;28;20173;-73
2021/06/08 00:23:36;;;;;;;1.95;1.25;;;;;;;;;;5068610;28;20044;-73
2021/06/08 00:26:03;;;;;;;1.50;1.40;;;;;;;;;;5067573;28;20131;-73
2021/06/08 00:28:29;;;;;;;1.55;1.45;;;;;;;;;;5068235;28;20051;-73
2021/06/08 00:30:55;;;;;;;1.17;0.88;;;;;;;;;;5067097;28;20094;-73
2021/06/08 00:33:21;;;;;;;1.85;1.33;;;;;;;;;;5068451;28;20044;-73
2021/06/08 00:35:47;;;;;;;1.35;1.10;;;;;;;;;;5067238;28;20060;-73
2021/06/08 00:38:13;;;;;;;1.63;1.52;;;;;;;;;;5067773;28;20480;-73
2021/06/08 00:40:43;;;;;;;1.48;1.38;;;;;;;;;;5068229;28;20043;-73
2021/06/08 00:43:10;;;;;;;1.83;1.23;;;;;;;;;;5067339;28;20414;-73
2021/06/08 00:45:36;;;;;;;2.25;1.48;;;;;;;;;;5067968;28;20142;-73
2021/06/08 00:48:02;;;;;;;1.10;1.10;;;;;;;;;;5067732;28;20040;-73
2021/06/08 00:50:28;;;;;;;1.48;1.33;;;;;;;;;;5067712;28;20048;-73
2021/06/08 00:52:54;;;;;;;1.65;1.55;;;;;;;;;;5070677;28;20088;-72
2021/06/08 00:55:21;;;;;;;2.17;1.70;;;;;;;;;;5071904;28;20037;-73
2021/06/08 00:57:48;;;;;;;1.40;1.30;;;;;;;;;;5071552;28;20088;-73
2021/06/08 01:00:14;;;;;;;1.58;1.48;;;;;;;;;;5071210;28;20056;-73
2021/06/08 01:02:40;;;;;;;1.92;1.55;;;;;;;;;;5071593;28;20102;-73
2021/06/08 01:05:07;;;;;;;1.60;1.50;;;;;;;;;;5070271;28;20059;-73
2021/06/08 01:07:34;;;;;;;1.55;1.25;;;;;;;;;;5071656;28;20040;-73
2021/06/08 01:10:00;;;;;;;2.25;1.50;;;;;;;;;;5052858;28;20139;-73
2021/06/08 01:12:27;;;;;;;1.70;1.35;;;;;;;;;;5070904;28;20411;-73
2021/06/08 01:14:54;;;;;;;1.95;1.85;;;;;;;;;;5070602;28;20098;-73
2021/06/08 01:17:20;;;;;;;2.90;1.58;;;;;;;;;;5071058;28;20037;-73
2021/06/08 01:19:47;;;;;;;2.28;2.05;;;;;;;;;;5070898;28;20060;-73
2021/06/08 01:22:14;;;;;;;1.35;1.27;;;;;;;;;;5070986;28;20492;-73
2021/06/08 01:24:41;;;;;;;2.25;1.02;;;;;;;;;;5071128;28;20048;-73
2021/06/08 01:27:08;;;;;;;2.17;1.20;;;;;;;;;;5070354;28;20558;-73
2021/06/08 01:29:35;;;;;;;1.48;1.38;;;;;;;;;;5071103;28;20044;-73
2021/06/08 01:32:03;;;;;;;1.92;1.80;;;;;;;;;;5070014;28;20081;-73
2021/06/08 01:34:29;;;;;;;1.63;1.52;;;;;;;;;;5070456;28;21045;-73
2021/06/08 01:36:56;;;;;;;1.88;1.77;;;;;;;;;;5070048;28;20051;-73
2021/06/08 01:39:22;;;;;;;2.15;1.60;;;;;;;;;;5070483;28;20040;-73
2021/06/08 01:41:49;;;;;;;1.15;1.13;;;;;;;;;;5070231;28;20069;-73
2021/06/08 01:44:15;;;;;;;1.40;1.30;;;;;;;;;;5070548;28;20052;-73
2021/06/08 01:46:41;;;;;;;1.38;1.35;;;;;;;;;;5070597;28;20131;-73
2021/06/08 01:49:08;;;;;;;0.90;0.90;;;;;;;;;;5070286;28;20044;-73
2021/06/08 01:51:53;;;;;;;1.38;1.27;;;;;;;;;;5070552;28;20048;-73
2021/06/08 01:54:25;;;;;;;1.20;1.10;;;;;;;;;;5070762;28;20045;-73
2021/06/08 01:56:54;;;;;;;1.63;1.52;;;;;;;;;;5069633;28;20046;-73
2021/06/08 01:59:29;;;;;;;1.92;1.33;;;;;;;;;;5070623;28;20040;-73
2021/06/08 02:02:00;;;;;;;1.13;1.13;;;;;;;;;;5069563;28;20052;-73
2021/06/08 02:04:27;;;;;;;2.58;1.63;;;;;;;;;;5070241;28;20048;-73
2021/06/08 02:07:13;;;;;;;1.50;1.40;;;;;;;;;;5069449;28;20518;-73
2021/06/08 02:09:45;;;;;;;1.30;1.20;;;;;;;;;;5070099;28;20063;-73
2021/06/08 02:12:20;;;;;;;1.60;1.50;;;;;;;;;;5069575;28;20055;-73
2021/06/08 02:14:58;;;;;;;1.58;1.48;;;;;;;;;;5069874;28;20048;-73
2021/06/08 02:17:28;;;;;;;2.92;1.15;;;;;;;;;;5069514;28;20076;-73
2021/06/08 02:19:56;;;;;;;1.50;1.40;;;;;;;;;;5069214;28;20048;-73
2021/06/08 02:22:24;;;;;;;1.60;1.50;;;;;;;;;;5069880;28;20067;-73
2021/06/08 02:24:50;;;;;;;1.50;1.30;;;;;;;;;;5069718;28;20048;-73
2021/06/08 02:27:17;;;;;;;1.48;1.40;;;;;;;;;;5070293;28;20135;-73
2021/06/08 02:29:46;;;;;;;1.63;1.52;;;;;;;;;;5069638;28;20048;-74
2021/06/08 02:32:14;;;;;;;2.38;2.13;;;;;;;;;;5069890;28;20713;-73
2021/06/08 02:34:40;;;;;;;2.35;1.63;;;;;;;;;;5069606;28;20591;-73
2021/06/08 02:37:10;;;;;;;1.85;1.75;;;;;;;;;;5069062;28;20056;-73
2021/06/08 02:39:36;;;;;;;1.50;1.17;;;;;;;;;;5069517;28;20064;-73
2021/06/08 02:42:03;;;;;;;1.75;1.65;;;;;;;;;;5069108;28;20043;-73
2021/06/08 02:44:29;;;;;;;1.70;1.60;;;;;;;;;;5069761;28;20052;-73
2021/06/08 02:46:56;;;;;;;1.42;1.33;;;;;;;;;;5068780;28;20117;-73
2021/06/08 02:49:23;;;;;;;1.60;1.50;;;;;;;;;;5069328;28;20150;-73
2021/06/08 02:51:49;;;;;;;1.13;1.02;;;;;;;;;;5068763;28;20089;-73
2021/06/08 02:54:16;;;;;;;1.13;1.10;;;;;;;;;;5069606;28;20049;-73
2021/06/08 02:56:43;;;;;;;1.83;1.05;;;;;;;;;;5069368;28;20048;-73
2021/06/08 02:59:09;;;;;;;1.15;1.15;;;;;;;;;;5068474;28;20124;-73
2021/06/08 03:01:38;;;;;;;1.63;1.48;;;;;;;;;;5069047;28;20033;-73
2021/06/08 03:04:04;;;;;;;1.77;1.60;;;;;;;;;;5067040;28;20121;-73
2021/06/08 03:06:33;;;;;;;1.40;1.30;;;;;;;;;;5068378;28;20052;-73
2021/06/08 03:09:04;;;;;;;3.35;1.35;;;;;;;;;;5068370;28;20041;-73
2021/06/08 03:11:36;;;;;;;1.52;1.00;;;;;;;;;;5068933;28;20080;-73
2021/06/08 03:14:02;;;;;;;1.75;1.65;;;;;;;;;;5068320;28;20051;-73
2021/06/08 03:16:30;;;;;;;1.65;1.55;;;;;;;;;;5068963;28;20139;-73
2021/06/08 03:18:58;;;;;;;1.40;1.30;;;;;;;;;;5067967;28;20048;-73
2021/06/08 03:21:27;;;;;;;1.02;1.02;;;;;;;;;;5068698;28;20094;-73
2021/06/08 03:23:56;;;;;;;2.63;1.63;;;;;;;;;;5067960;28;20072;-73
2021/06/08 03:26:23;;;;;;;1.42;1.33;;;;;;;;;;5067506;28;20051;-73
2021/06/08 03:28:51;;;;;;;1.42;1.33;;;;;;;;;;5068129;28;20047;-73
2021/06/08 03:31:18;;;;;;;2.55;1.40;;;;;;;;;;5068458;28;20475;-73
2021/06/08 03:33:44;;;;;;;1.25;1.25;;;;;;;;;;5069016;28;20048;-73
2021/06/08 03:36:11;;;;;;;1.40;1.30;;;;;;;;;;5068049;28;20051;-73
2021/06/08 03:38:38;;;;;;;1.70;0.93;;;;;;;;;;5068885;28;20491;-73
2021/06/08 03:41:05;;;;;;;2.47;1.38;;;;;;;;;;5067509;28;20546;-73
2021/06/08 03:43:31;;;;;;;2.65;1.48;;;;;;;;;;5068770;28;20085;-73
2021/06/08 03:45:58;;;;;;;1.00;1.00;;;;;;;;;;5067800;28;20056;-73
2021/06/08 03:48:24;;;;;;;1.20;1.10;;;;;;;;;;5068529;28;20053;-73
2021/06/08 03:50:51;;;;;;;1.23;1.15;;;;;;;;;;5068084;28;20530;-73
2021/06/08 03:53:18;;;;;;;1.10;1.10;;;;;;;;;;5068974;28;20503;-73
2021/06/08 03:55:47;;;;;;;1.58;1.40;;;;;;;;;;5068995;28;20047;-73
2021/06/08 03:58:15;;;;;;;1.00;1.00;;;;;;;;;;5068486;28;20049;-73
2021/06/08 04:00:42;;;;;;;1.05;1.00;;;;;;;;;;5068629;28;20047;-73
2021/06/08 04:03:11;;;;;;;1.80;1.65;;;;;;;;;;5068131;28;20056;-73
2021/06/08 04:05:38;;;;;;;1.33;1.23;;;;;;;;;;5068295;28;20045;-73
2021/06/08 04:08:05;;;;;;;2.08;1.88;;;;;;;;;;5067646;28;20067;-73
2021/06/08 04:10:31;;;;;;;2.15;1.17;;;;;;;;;;5068574;28;20063;-73
2021/06/08 04:13:01;;;;;;;1.33;1.23;;;;;;;;;;5068229;28;20033;-73
2021/06/08 04:15:28;;;;;;;1.50;1.40;;;;;;;;;;5068905;28;20048;-73
2021/06/08 04:17:54;;;;;;;1.60;1.10;;;;;;;;;;5067882;28;20487;-73
2021/06/08 04:20:21;;;;;;;1.75;1.65;;;;;;;;;;5068181;28;20048;-73
2021/06/08 04:22:47;;;;;;;1.40;1.30;;;;;;;;;;5067767;28;20052;-73
2021/06/08 04:25:16;;;;;;;1.13;1.13;;;;;;;;;;5068073;28;20060;-73
2021/06/08 04:27:42;;;;;;;1.27;1.10;;;;;;;;;;5069568;28;20048;-73
2021/06/08 04:30:09;;;;;;;1.85;1.75;;;;;;;;;;5071721;28;20044;-73
2021/06/08 04:32:35;;;;;;;1.42;1.30;;;;;;;;;;5072206;28;20044;-73
2021/06/08 04:35:03;;;;;;;2.28;1.00;;;;;;;;;;5070957;28;20049;-74
2021/06/08 04:37:29;;;;;;;1.10;1.10;;;;;;;;;;5072269;28;20041;-73
2021/06/08 04:39:55;;;;;;;1.98;1.83;;;;;;;;;;5070899;28;20056;-73
2021/06/08 04:42:21;;;;;;;1.95;1.45;;;;;;;;;;5071715;28;20049;-73
2021/06/08 04:44:48;;;;;;;1.58;1.48;;;;;;;;;;5071796;28;20055;-73
2021/06/08 04:47:15;;;;;;;1.85;1.75;;;;;;;;;;5071179;28;20048;-73
2021/06/08 04:49:41;;;;;;;1.38;1.27;;;;;;;;;;5071083;28;20048;-73
2021/06/08 04:52:08;;;;;;;1.77;1.20;;;;;;;;;;5070581;28;20063;-73
2021/06/08 04:54:35;;;;;;;1.25;1.10;;;;;;;;;;5071882;28;20058;-73
2021/06/08 04:57:02;;;;;;;2.22;1.30;;;;;;;;;;5071164;28;20053;-73
2021/06/08 04:59:37;;;;;;;1.70;1.60;;;;;;;;;;5071426;28;20419;-73
2021/06/08 05:02:06;;;;;;;1.75;0.98;;;;;;;;;;5069196;28;20052;-73
2021/06/08 05:04:33;;;;;;;1.83;1.70;;;;;;;;;;5071546;28;20040;-73
2021/06/08 05:07:01;;;;;;;1.30;1.20;;;;;;;;;;5070613;28;20045;-73
2021/06/08 05:09:31;;;;;;;1.30;1.20;;;;;;;;;;5071075;28;20052;-73
2021/06/08 05:11:58;;;;;;;1.13;0.90;;;;;;;;;;5070492;28;20069;-73
2021/06/08 05:14:26;;;;;;;1.33;1.25;;;;;;;;;;5071675;28;20491;-73
2021/06/08 05:16:53;;;;;;;1.70;1.17;;;;;;;;;;5070871;28;20139;-73
2021/06/08 05:19:19;;;;;;;1.40;1.30;;;;;;;;;;5070865;28;20514;-73
2021/06/08 05:21:46;;;;;;;1.35;1.25;;;;;;;;;;5070961;28;20565;-73
2021/06/08 05:24:13;;;;;;;1.05;0.98;;;;;;;;;;5070877;28;20044;-73
2021/06/08 05:26:40;;;;;;;1.77;1.20;;;;;;;;;;5071320;28;20044;-73
2021/06/08 05:29:06;;;;;;;1.50;1.40;;;;;;;;;;5068220;28;20063;-73
2021/06/08 05:31:33;;;;;;;1.40;1.30;;;;;;;;;;5070565;28;20036;-73
2021/06/08 05:33:59;;;;;;;1.45;1.30;;;;;;;;;;5070881;28;20079;-73
2021/06/08 05:36:32;;;;;;;1.55;1.42;;;;;;;;;;5070618;28;20061;-73
2021/06/08 05:38:58;;;;;;;1.77;1.58;;;;;;;;;;5069905;28;20084;-73
2021/06/08 05:41:24;;;;;;;1.33;1.23;;;;;;;;;;5070883;28;20599;-73
2021/06/08 05:43:50;;;;;;;2.97;1.60;;;;;;;;;;5070553;28;20511;-73
2021/06/08 05:46:16;;;;;;;1.58;1.48;;;;;;;;;;5070842;28;20048;-73
2021/06/08 05:48:42;;;;;;;1.85;1.75;;;;;;;;;;5071502;28;20036;-73
2021/06/08 05:51:10;;;;;;;1.20;1.10;;;;;;;;;;5079616;28;20266;-73
2021/06/08 05:53:37;;;;;;;1.60;1.50;;;;;;;;;;5065724;28;20522;-74
2021/06/08 05:56:04;;;;;;;1.92;1.58;;;;;;;;;;5066683;28;20258;-74
2021/06/08 05:58:31;;;;;;;1.98;1.20;;;;;;;;;;5066829;28;20573;-73
2021/06/08 06:00:57;;;;;;;3.40;1.38;;;;;;;;;;5065032;28;20115;-73
2021/06/08 06:03:24;;;;;;;4.28;1.40;;;;;;;;;;5065256;28;20093;-73
2021/06/08 06:05:51;;;;;;;3.63;1.35;;;;;;;;;;5060070;28;20060;-72
2021/06/08 06:08:18;;;;;;;3.08;2.33;;;;;;;;;;5069995;28;20120;-73
2021/06/08 06:10:44;;;;;;;1.63;1.30;;;;;;;;;;5068102;28;20052;-73
2021/06/08 06:13:14;;;;;;;2.90;1.92;;;;;;;;;;5068345;28;20055;-73
2021/06/08 06:15:40;;;;;;;2.08;1.23;;;;;;;;;;5068339;28;20518;-73
2021/06/08 06:18:08;;;;;;;5.20;3.00;;;;;;;;;;5065904;28;20412;-73
2021/06/08 06:20:34;;;;;;;6.78;1.10;;;;;;;;;;5052415;28;20078;-74
2021/06/08 06:23:00;;;;;;;3.00;1.42;;;;;;;;;;5057966;28;20551;-73
2021/06/08 06:25:26;;;;;;;1.63;1.25;;;;;;;;;;5063895;28;20044;-73
2021/06/08 06:27:53;;;;;;;1.42;1.30;;;;;;;;;;5069039;28;20050;-73
2021/06/08 06:30:19;;;;;;;3.08;1.52;;;;;;;;;;5065840;28;20041;-72
2021/06/08 06:32:45;;;;;;;5.28;2.40;;;;;;;;;;5062972;28;20075;-72
2021/06/08 06:35:12;;;;;;;1.60;1.10;;;;;;;;;;5064543;28;20036;-72
2021/06/08 06:37:40;;;;;;;3.10;1.30;;;;;;;;;;5063444;28;20049;-73
2021/06/08 06:40:08;;;;;;;2.25;0.98;;;;;;;;;;5064143;28;20057;-73
2021/06/08 06:42:39;;;;;;;0.82;0.80;;;;;;;;;;5062342;28;20033;-72
2021/06/08 06:45:08;;;;;;;6.65;1.48;;;;;;;;;;5059520;28;20040;-72
2021/06/08 06:47:36;;;;;;;2.03;1.20;;;;;;;;;;5047370;28;20587;-73
2021/06/08 06:50:04;;;;;;;4.10;1.00;;;;;;;;;;5056204;28;20040;-72
2021/06/08 06:52:31;;;;;;;3.92;1.35;;;;;;;;;;5057024;28;20137;-72
2021/06/08 06:54:57;;;;;;;1.33;1.05;;;;;;;;;;5061690;28;20114;-72
2021/06/08 06:57:23;;;;;;;1.60;0.73;;;;;;;;;;5061325;28;20436;-72
2021/06/08 06:59:49;;;;;;;1.20;1.10;;;;;;;;;;5060215;28;20043;-72
2021/06/08 07:02:19;;;;;;;1.50;1.40;;;;;;;;;;5060268;28;20592;-71
2021/06/08 07:04:47;;;;;;;3.35;1.10;;;;;;;;;;5056663;28;20033;-71
2021/06/08 07:07:17;;;;;;;2.58;1.02;;;;;;;;;;5041946;28;20473;-71
2021/06/08 07:09:44;;;;;;;2.72;1.45;;;;;;;;;;5060625;28;20086;-72
2021/06/08 07:12:11;;;;;;;2.58;1.13;;;;;;;;;;5060389;28;20048;-73
2021/06/08 07:14:40;;;;;;;2.08;1.55;;;;;;;;;;5062531;28;20045;-72
2021/06/08 07:17:06;;;;;;;1.52;1.42;;;;;;;;;;5054305;28;20523;-73
2021/06/08 07:19:32;;;;;;;3.17;0.93;;;;;;;;;;5061436;28;20124;-71
2021/06/08 07:21:58;;;;;;;1.75;1.42;;;;;;;;;;5058899;28;20070;-74
2021/06/08 07:24:26;;;;;;;7.03;1.38;;;;;;;;;;5061636;28;20109;-70
2021/06/08 07:26:53;;;;;;;3.90;1.17;;;;;;;;;;5057759;28;20425;-73
2021/06/08 07:29:19;;;;;;;3.50;1.45;;;;;;;;;;5061508;28;20037;-73
2021/06/08 07:31:53;;;;;;;4.68;1.92;;;;;;;;;;5062208;28;20044;-74
2021/06/08 07:34:19;;;;;;;;;;;;;;;;;;5057737;28;20819;-72
2021/06/08 07:36:46;;;;;;;1.23;1.02;;;;;;;;;;5058657;28;19924;-74
2021/06/08 07:39:26;;;;;;;3.35;0.85;;;;;;;;;;5060116;28;20052;-73
2021/06/08 07:42:12;;;;;;;7.15;2.15;;;;;;;;;;5058215;28;20045;-75
2021/06/08 07:44:45;;;;;;;1.33;1.10;;;;;;;;;;5061697;28;20047;-74
2021/06/08 07:47:13;;;;;;;1.20;1.10;;;;;;;;;;5056678;28;20048;-75
2021/06/08 07:49:39;;;;;;;1.35;1.23;;;;;;;;;;5060625;28;20566;-75
2021/06/08 07:52:06;;;;;;;1.67;1.17;;;;;;;;;;5060982;28;20627;-74
2021/06/08 07:54:32;;;;;;;5.07;0.93;;;;;;;;;;5059751;28;20062;-74
2021/06/08 07:56:59;;;;;;;1.30;0.73;;;;;;;;;;5057915;28;20142;-75
2021/06/08 07:59:26;;;;;;;2.75;1.08;;;;;;;;;;5060644;28;20138;-74
2021/06/08 08:01:52;;;;;;;1.73;0.90;;;;;;;;;;5059765;28;20053;-73
2021/06/08 08:04:19;;;;;;;3.17;1.23;;;;;;;;;;5061897;28;20053;-74
2021/06/08 08:06:48;;;;;;;4.13;1.67;;;;;;;;;;5059096;28;20049;-74
2021/06/08 08:09:14;;;;;;;2.08;1.30;;;;;;;;;;5061490;28;20719;-75
2021/06/08 08:11:43;;;;;;;1.92;0.88;;;;;;;;;;5063795;28;20063;-74
2021/06/08 08:14:11;;;;;;;4.70;1.10;;;;;;;;;;5064078;28;20056;-75
2021/06/08 08:16:37;;;;;;;2.13;1.45;;;;;;;;;;5063788;28;20049;-74
2021/06/08 08:19:03;;;;;;;2.03;1.20;;;;;;;;;;5065394;28;20090;-74
2021/06/08 08:21:29;;;;;;;2.08;1.48;;;;;;;;;;5064827;28;20175;-74
2021/06/08 08:23:55;;;;;;;2.25;1.63;;;;;;;;;;5046540;28;20117;-71
2021/06/08 08:26:22;;;;;;;2.47;0.93;;;;;;;;;;5062559;28;20052;-72
2021/06/08 08:28:49;;;;;;;4.43;1.63;;;;;;;;;;5063695;28;20088;-73
2021/06/08 08:31:16;;;;;;;1.42;0.93;;;;;;;;;;5064014;28;20041;-74
2021/06/08 08:33:46;;;;;;;2.85;1.23;;;;;;;;;;5064974;28;20037;-74
2021/06/08 08:36:13;;;;;;;3.72;1.33;;;;;;;;;;5062285;28;20114;-74
2021/06/08 08:38:39;;;;;;;1.67;1.25;;;;;;;;;;5064698;28;20063;-74
2021/06/08 08:41:05;;;;;;;1.75;1.15;;;;;;;;;;5063902;28;20052;-74
2021/06/08 08:43:32;;;;;;;2.90;1.85;;;;;;;;;;5064697;28;20041;-74
2021/06/08 08:45:58;;;;;;;0.93;0.70;;;;;;;;;;5061080;28;20106;-73
2021/06/08 08:48:25;;;;;;;1.15;1.15;;;;;;;;;;5065512;28;20068;-73
2021/06/08 08:50:51;;;;;;;1.35;0.85;;;;;;;;;;5062826;28;20529;-73
2021/06/08 08:53:19;;;;;;;3.85;1.48;;;;;;;;;;5064608;28;20551;-74
2021/06/08 08:55:46;;;;;;;1.20;1.13;;;;;;;;;;5062293;28;20406;-73
2021/06/08 08:58:12;;;;;;;1.48;1.35;;;;;;;;;;5059913;28;20056;-74
2021/06/08 09:00:39;;;;;;;3.47;1.48;;;;;;;;;;5063827;28;20514;-74
2021/06/08 09:03:05;;;;;;;3.28;1.33;;;;;;;;;;5063130;28;20522;-73
2021/06/08 09:05:37;;;;;;;5.72;1.50;;;;;;;;;;5064343;28;20037;-74
2021/06/08 09:08:04;;;;;;;4.35;2.60;;;;;;;;;;5061058;28;20045;-76
2021/06/08 09:10:31;;;;;;;1.85;1.30;;;;;;;;;;5064122;28;20063;-76
2021/06/08 09:12:57;;;;;;;3.53;1.85;;;;;;;;;;5061170;28;20131;-74
2021/06/08 09:15:23;;;;;;;3.47;1.70;;;;;;;;;;5044985;28;20468;-72
2021/06/08 09:17:53;;;;;;;1.60;1.50;;;;;;;;;;5059121;28;20125;-74
2021/06/08 09:20:19;;;;;;;3.13;1.48;;;;;;;;;;5063990;28;20048;-71
2021/06/08 09:22:54;;;;;;;5.50;1.52;;;;;;;;;;5063255;28;20056;-71
2021/06/08 09:25:40;;;;;;;2.25;1.33;;;;;;;;;;5063150;28;20496;-71
2021/06/08 09:28:26;;;;;;;3.63;1.30;;;;;;;;;;5060888;28;20091;-72
2021/06/08 09:31:06;;;;;;;6.90;1.25;;;;;;;;;;5062777;28;20072;-70
2021/06/08 09:33:35;;;;;;;2.20;1.27;;;;;;;;;;5064485;28;20056;-71
2021/06/08 09:36:06;;;;;;;1.63;1.52;;;;;;;;;;5060234;28;20480;-72
2021/06/08 09:38:37;;;;;;;1.67;1.55;;;;;;;;;;5060199;28;20048;-73
2021/06/08 09:41:14;;;;;;;2.78;1.65;;;;;;;;;;5062790;28;20105;-73
2021/06/08 09:44:00;;;;;;;1.35;1.25;;;;;;;;;;5062078;28;20052;-72
2021/06/08 09:46:46;;;;;;;4.00;1.70;;;;;;;;;;5057865;28;20123;-73
2021/06/08 09:49:13;;;;;;;3.33;1.45;;;;;;;;;;5060826;28;20051;-73
2021/06/08 09:51:47;;;;;;;5.32;2.22;;;;;;;;;;5062986;28;20079;-73
2021/06/08 09:54:33;;;;;;;10.88;2.25;;;;;;;;;;5062636;28;20045;-73
2021/06/08 09:57:12;;;;;;;2.38;1.90;;;;;;;;;;5057012;28;20044;-74
2021/06/08 09:59:40;;;;;;;4.60;2.15;;;;;;;;;;5045488;28;20463;-73
2021/06/08 10:02:19;;;;;;;8.32;2.20;;;;;;;;;;5061542;28;20088;-76
2021/06/08 10:04:45;;;;;;;2.28;2.08;;;;;;;;;;5062484;28;20040;-71
2021/06/08 10:07:25;;;;;;;4.38;1.75;;;;;;;;;;5058146;28;20048;-73
2021/06/08 10:10:09;;;;;;;1.85;1.70;;;;;;;;;;5061385;28;20128;-73
2021/06/08 10:12:35;;;;;;;2.15;1.77;;;;;;;;;;5062781;28;20059;-73
2021/06/08 10:15:06;;;;;;;4.72;2.05;;;;;;;;;;5063136;28;20057;-74
2021/06/08 10:17:32;;;;;;;8.02;2.85;;;;;;;;;;5060121;28;20511;-73
2021/06/08 10:20:16;;;;;;;3.78;1.67;;;;;;;;;;5063010;28;20067;-74
2021/06/08 10:22:42;;;;;;;6.10;1.95;;;;;;;;;;5061099;28;20083;-73
2021/06/08 10:25:08;;;;;;;4.65;1.60;;;;;;;;;;5061225;28;20118;-74
2021/06/08 10:27:35;;;;;;;4.03;1.65;;;;;;;;;;5059964;28;20060;-74
2021/06/08 10:30:01;;;;;;;4.07;2.08;;;;;;;;;;5062292;28;20093;-73
2021/06/08 10:32:27;;;;;;;4.43;1.70;;;;;;;;;;5063635;28;20064;-73
2021/06/08 10:34:53;;;;;;;3.10;2.00;;;;;;;;;;5062223;28;20060;-73
2021/06/08 10:37:20;;;;;;;3.25;1.38;;;;;;;;;;5060257;28;20056;-74
2021/06/08 10:39:46;;;;;;;5.43;2.45;;;;;;;;;;5064251;28;20058;-73
2021/06/08 10:42:12;;;;;;;1.75;1.65;;;;;;;;;;5063347;28;20060;-73
2021/06/08 10:44:40;;;;;;;1.95;1.67;;;;;;;;;;5062567;28;20130;-73
2021/06/08 10:47:20;;;;;;;2.00;1.75;;;;;;;;;;5059527;28;20273;-73
2021/06/08 10:49:46;;;;;;;5.50;3.17;;;;;;;;;;5062078;28;20056;-73
2021/06/08 10:52:14;;;;;;;6.35;2.20;;;;;;;;;;5062912;28;20091;-73
2021/06/08 10:54:41;;;;;;;11.20;3.10;;;;;;;;;;5064108;28;20051;-73
2021/06/08 10:57:15;;;;;;;5.22;2.08;;;;;;;;;;5059927;28;20499;-73
2021/06/08 10:59:45;;;;;;;2.22;2.03;;;;;;;;;;5063818;28;20055;-74
2021/06/08 11:02:13;;;;;;;2.00;1.67;;;;;;;;;;5063195;28;20080;-73
2021/06/08 11:04:53;;;;;;;3.67;2.10;;;;;;;;;;5063839;28;20052;-73
2021/06/08 11:07:39;;;;;;;4.85;3.03;;;;;;;;;;5058271;28;20052;-73
2021/06/08 11:10:25;;;;;;;5.35;1.88;;;;;;;;;;5059973;28;20040;-73
2021/06/08 11:13:12;;;;;;;1.75;1.52;;;;;;;;;;5061950;28;20076;-73
2021/06/08 11:15:39;;;;;;;3.40;2.10;;;;;;;;;;5063542;28;20121;-73
2021/06/08 11:18:25;;;;;;;1.40;1.30;;;;;;;;;;5059416;28;20936;-73
2021/06/08 11:21:13;;;;;;;6.18;1.88;;;;;;;;;;5047988;28;20041;-73
2021/06/08 11:23:43;;;;;;;4.28;1.42;;;;;;;;;;5046966;28;20589;-73
2021/06/08 11:26:13;;;;;;;2.17;1.50;;;;;;;;;;5059558;28;20502;-73
2021/06/08 11:28:47;;;;;;;2.97;1.95;;;;;;;;;;5062373;28;20506;-73
2021/06/08 11:31:14;;;;;;;1.60;1.48;;;;;;;;;;5059325;28;20488;-73
2021/06/08 11:33:44;;;;;;;2.33;1.55;;;;;;;;;;5060629;28;20052;-73
2021/06/08 11:36:30;;;;;;;1.50;1.40;;;;;;;;;;5057992;28;20067;-71
2021/06/08 11:38:58;;;;;;;1.90;1.70;;;;;;;;;;5045034;28;20522;-71
2021/06/08 11:41:24;;;;;;;1.65;1.55;;;;;;;;;;5061107;28;20106;-72
2021/06/08 11:43:55;;;;;;;2.70;1.17;;;;;;;;;;5056718;28;20113;-74
2021/06/08 11:46:28;;;;;;;3.35;1.42;;;;;;;;;;5056308;28;20484;-73
2021/06/08 11:49:07;;;;;;;2.03;1.40;;;;;;;;;;5057720;28;20036;-73
2021/06/08 11:51:35;;;;;;;8.57;2.05;;;;;;;;;;5059018;28;20139;-73
2021/06/08 11:54:04;;;;;;;3.13;1.30;;;;;;;;;;5059227;28;20044;-74
2021/06/08 11:56:47;;;;;;;3.85;1.88;;;;;;;;;;5058114;28;20057;-73
2021/06/08 11:59:14;;;;;;;3.60;1.25;;;;;;;;;;5061436;28;20055;-73
2021/06/08 12:01:45;;;;;;;1.95;1.85;;;;;;;;;;5061131;28;20189;-72
2021/06/08 12:04:11;;;;;;;1.08;0.98;;;;;;;;;;5055738;28;20672;-71
2021/06/08 12:06:57;;;;;;;1.33;1.23;;;;;;;;;;5052206;28;20060;-73
2021/06/08 12:09:24;;;;;;;2.33;1.75;;;;;;;;;;5052856;28;20056;-74
2021/06/08 12:11:51;;;;;;;5.60;1.30;;;;;;;;;;5056431;28;20075;-74
2021/06/08 12:14:19;;;;;;;1.50;1.40;;;;;;;;;;5055085;28;20056;-74
2021/06/08 12:16:49;;;;;;;1.42;1.30;;;;;;;;;;5053851;28;20106;-73
2021/06/08 12:19:15;;;;;;;3.40;1.50;;;;;;;;;;5057276;28;20040;-74
2021/06/08 12:21:45;;;;;;;4.55;1.95;;;;;;;;;;5057103;28;20048;-74
2021/06/08 12:24:18;;;;;;;1.90;1.08;;;;;;;;;;5055859;28;20134;-73
2021/06/08 12:26:44;;;;;;;;;;;;;;;;;;5053246;28;20045;-73
2021/06/08 12:29:13;;;;;;;1.48;1.38;;;;;;;;;;5056522;28;19950;-74
2021/06/08 12:31:39;;;;;;;5.30;1.50;;;;;;;;;;5056903;28;20079;-73
2021/06/08 12:34:13;;;;;;;2.80;1.65;;;;;;;;;;5052324;28;20060;-74
2021/06/08 12:36:41;;;;;;;4.45;1.48;;;;;;;;;;5052612;28;20063;-74
2021/06/08 12:39:10;;;;;;;1.00;1.00;;;;;;;;;;5056440;28;20044;-73
2021/06/08 12:41:36;;;;;;;2.75;1.42;;;;;;;;;;5057691;28;20387;-74
2021/06/08 12:44:03;;;;;;;2.05;1.48;;;;;;;;;;5053636;28;20060;-74
2021/06/08 12:46:31;;;;;;;1.05;0.95;;;;;;;;;;5052107;28;20132;-74
2021/06/08 12:49:05;;;;;;;2.75;1.98;;;;;;;;;;5056649;28;20052;-74
2021/06/08 12:51:38;;;;;;;3.72;1.60;;;;;;;;;;5058013;28;20067;-73
2021/06/08 12:54:05;;;;;;;2.75;0.95;;;;;;;;;;5057890;28;20053;-72
2021/06/08 12:56:32;;;;;;;2.90;1.35;;;;;;;;;;5055987;28;20151;-73
2021/06/08 12:58:59;;;;;;;1.38;1.27;;;;;;;;;;5058906;28;20514;-74
2021/06/08 13:01:25;;;;;;;2.58;1.13;;;;;;;;;;5060369;28;20128;-74
2021/06/08 13:03:51;;;;;;;2.25;0.85;;;;;;;;;;5057280;28;20059;-74
2021/06/08 13:06:21;;;;;;;1.90;1.55;;;;;;;;;;5053047;28;20248;-73
2021/06/08 13:08:48;;;;;;;1.40;1.30;;;;;;;;;;5056296;28;20163;-73
2021/06/08 13:11:22;;;;;;;3.90;2.33;;;;;;;;;;5053242;28;20041;-74
2021/06/08 13:13:48;;;;;;;1.40;1.20;;;;;;;;;;5055039;28;20048;-76
2021/06/08 13:16:28;;;;;;;5.63;1.65;;;;;;;;;;5055601;28;20057;-73
2021/06/08 13:18:54;;;;;;;2.90;1.60;;;;;;;;;;5055968;28;20075;-74
2021/06/08 13:21:28;;;;;;;1.33;1.20;;;;;;;;;;5057319;28;20198;-73
2021/06/08 13:24:09;;;;;;;3.03;1.42;;;;;;;;;;5058112;28;20044;-73
2021/06/08 13:26:35;;;;;;;2.70;1.25;;;;;;;;;;5054851;28;20052;-74
2021/06/08 13:29:12;;;;;;;2.45;0.95;;;;;;;;;;5056391;28;20052;-73
2021/06/08 13:31:39;;;;;;;1.70;1.20;;;;;;;;;;5057600;28;20063;-72
2021/06/08 13:34:15;;;;;;;5.38;1.02;;;;;;;;;;5057445;28;20056;-73
2021/06/08 13:36:43;;;;;;;3.03;1.45;;;;;;;;;;5051946;28;20080;-73
2021/06/08 13:39:14;;;;;;;3.17;1.38;;;;;;;;;;5061744;28;20532;-71
2021/06/08 13:41:44;;;;;;;3.85;1.50;;;;;;;;;;5063640;28;20048;-73
2021/06/08 13:44:12;;;;;;;5.55;3.78;;;;;;;;;;5061878;28;20476;-73
2021/06/08 13:46:38;;;;;;;4.60;3.25;;;;;;;;;;5065527;28;20052;-73
2021/06/08 13:49:04;;;;;;;9.27;1.95;;;;;;;;;;5065419;28;20055;-73
2021/06/08 13:51:32;;;;;;;1.20;1.10;;;;;;;;;;5066360;28;20071;-74
2021/06/08 13:54:06;;;;;;;4.00;1.77;;;;;;;;;;5063940;28;20041;-73
2021/06/08 13:56:40;;;;;;;1.33;1.23;;;;;;;;;;5061482;28;20045;-73
2021/06/08 14:01:55;;;;;;;1.50;1.08;;;;;;;;;;5064953;28;20585;-73
2021/06/08 14:04:26;;;;;;;1.95;1.10;;;;;;;;;;5060235;28;20402;-73
2021/06/08 14:06:56;;;;;;;3.10;1.08;;;;;;;;;;5060967;28;20050;-73
2021/06/08 14:09:23;;;;;;;1.63;1.20;;;;;;;;;;5065052;28;20049;-73
2021/06/08 14:11:51;;;;;;;3.42;2.25;;;;;;;;;;5069626;28;20049;-72
2021/06/08 14:14:27;;;;;;;5.85;2.40;;;;;;;;;;5066532;28;20049;-72
2021/06/08 14:16:55;;;;;;;1.73;1.30;;;;;;;;;;5060343;28;20058;-71
2021/06/08 14:19:21;;;;;;;2.15;1.48;;;;;;;;;;5062105;28;20059;-72
2021/06/08 14:21:47;;;;;;;4.70;1.90;;;;;;;;;;5061922;28;20053;-72
2021/06/08 14:24:18;;;;;;;1.23;1.13;;;;;;;;;;5064911;28;20041;-72
2021/06/08 14:26:44;;;;;;;1.30;1.20;;;;;;;;;;5065388;28;20058;-72
2021/06/08 14:29:10;;;;;;;5.25;2.13;;;;;;;;;;5065000;28;20232;-71
2021/06/08 14:31:37;;;;;;;1.10;1.10;;;;;;;;;;5054781;28;20051;-71
2021/06/08 14:34:04;;;;;;;1.65;1.40;;;;;;;;;;5050732;28;20082;-71
2021/06/08 14:36:30;;;;;;;3.70;1.40;;;;;;;;;;5057012;28;20049;-72
2021/06/08 14:38:58;;;;;;;3.85;1.52;;;;;;;;;;5038100;28;20575;-70
2021/06/08 14:41:24;;;;;;;3.35;1.45;;;;;;;;;;5057653;28;20765;-72
2021/06/08 14:43:50;;;;;;;1.38;1.10;;;;;;;;;;5054005;28;20052;-74
2021/06/08 14:46:16;;;;;;;1.80;1.10;;;;;;;;;;5053126;28;20048;-72
2021/06/08 14:48:42;;;;;;;1.23;1.13;;;;;;;;;;5055429;28;20114;-72
2021/06/08 14:51:09;;;;;;;3.22;1.95;;;;;;;;;;5055435;28;20751;-72
2021/06/08 14:53:35;;;;;;;1.55;1.30;;;;;;;;;;5054374;28;20155;-72
2021/06/08 14:56:01;;;;;;;2.67;1.73;;;;;;;;;;5059820;28;20109;-72